Gisborne Aerodrome, New Zealand
Current Conditions -  °F | °C
As of 11:30 AM on Sunday 26 Oct 2014 (Local Time) from NZAA Reporting Station
Overcast Overcast  
Wind Chill: 61°   Ceiling: 4800
Heat Index: 61°   Visibility: 6mi
Dew Point: 50°   Wind: 16mph
Humidity: 68%   Direction: 240°WSW
Pressure: 30.09"   Gusts: NA
Location:  38.67°S, 177.98°E
Report Text: NZAA 252330Z AUTO 24014KT 9999 OVC048/// 16/10 Q1019 NOSIG
Loading
Personal Weather Stations






























Interactive Weather Map
Tropical Storm Tracking
New forecast layout! Learn more

10-Day Weather Forecast

Advertisements
Track Severe Weather on mobile